Terminal Aerodrome Forecast
Issued by NWS

Home | Current Version | Previous Version | Text Only | Print | Product List | Glossary On
Versions: 1 2 3 4 5 6 7 8 9 10 11 12 13 14
000
FTUS45 KABQ 261740
TAFROW
TAF
KROW 261740Z 2618/2718 05006KT P6SM SCT120
     FM262100 24007KT P6SM VCSH SCT090 BKN150
     FM270000 15008KT P6SM VCTS SCT070CB BKN120
     FM270300 VRB06KT P6SM VCSH BKN100
     FM270700 VRB06KT P6SM BKN120
     FM271500 14006KT P6SM SCT130=

USA.gov is the U.S. government's official web portal to all federal, state and local government web resources and services.